createdAt,value
2017-12-23T00:00:18.086Z,0
2017-12-23T00:01:17.694Z,0
2017-12-23T00:02:16.744Z,0
2017-12-23T00:03:16.367Z,0
2017-12-23T00:04:18.688Z,0
2017-12-23T00:05:16.872Z,0
2017-12-23T00:06:17.343Z,0
2017-12-23T00:07:16.413Z,0
2017-12-23T00:08:16.509Z,0
2017-12-23T00:09:15.854Z,0
2017-12-23T00:10:17.674Z,0
2017-12-23T00:11:17.208Z,0
2017-12-23T00:12:16.518Z,0
2017-12-23T00:13:17.012Z,0
2017-12-23T00:14:17.284Z,0
2017-12-23T00:15:18.088Z,0
2017-12-23T00:16:17.339Z,0
2017-12-23T00:17:16.296Z,0
2017-12-23T00:18:16.712Z,0
2017-12-23T00:19:16.737Z,0
2017-12-23T00:20:21.470Z,0
2017-12-23T00:21:15.244Z,0
2017-12-23T00:22:15.020Z,0
2017-12-23T00:23:15.235Z,0
2017-12-23T00:24:15.022Z,0
2017-12-23T00:25:16.949Z,0
2017-12-23T00:26:14.993Z,0
2017-12-23T00:27:15.219Z,0
2017-12-23T00:28:14.723Z,0
2017-12-23T00:29:15.208Z,0
2017-12-23T00:30:16.718Z,0
2017-12-23T00:31:14.964Z,0
2017-12-23T00:32:15.186Z,0
2017-12-23T00:33:14.954Z,0
2017-12-23T00:34:14.943Z,0
2017-12-23T00:35:18.207Z,0
2017-12-23T00:36:14.683Z,0
2017-12-23T00:37:15.175Z,0
2017-12-23T00:38:14.675Z,0
2017-12-23T00:39:14.665Z,0
2017-12-23T00:40:18.272Z,0
2017-12-23T00:41:14.652Z,0
2017-12-23T00:42:14.651Z,0
2017-12-23T00:43:14.902Z,0
2017-12-23T00:44:14.899Z,0
2017-12-23T00:45:15.914Z,0
2017-12-23T00:46:14.886Z,0
2017-12-23T00:47:14.885Z,0
2017-12-23T00:48:14.886Z,0
2017-12-23T00:49:14.374Z,0
2017-12-23T00:50:17.046Z,0
2017-12-23T00:51:14.906Z,0
2017-12-23T00:52:14.880Z,0
2017-12-23T00:53:14.614Z,0
2017-12-23T00:54:15.116Z,0
2017-12-23T00:55:16.851Z,0
2017-12-23T00:56:14.614Z,0
2017-12-23T00:57:15.111Z,0
2017-12-23T00:58:15.106Z,0
2017-12-23T00:59:15.114Z,0
2017-12-23T01:00:16.428Z,0
2017-12-23T01:01:14.851Z,0
2017-12-23T01:02:15.088Z,0
2017-12-23T01:03:15.085Z,0
2017-12-23T01:04:15.089Z,0
2017-12-23T01:05:16.703Z,0
2017-12-23T01:06:18.643Z,0
2017-12-23T01:07:14.815Z,0
2017-12-23T01:08:14.817Z,0
2017-12-23T01:09:14.838Z,0
2017-12-23T01:10:15.982Z,0
2017-12-23T01:11:14.809Z,0
2017-12-23T01:12:15.110Z,0
2017-12-23T01:13:14.807Z,0
2017-12-23T01:14:14.802Z,0
2017-12-23T01:15:15.836Z,0
2017-12-23T01:16:15.059Z,0
2017-12-23T01:17:14.839Z,0
2017-12-23T01:18:15.042Z,0
2017-12-23T01:19:14.785Z,0
2017-12-23T01:20:15.842Z,0
2017-12-23T01:21:16.601Z,0
2017-12-23T01:22:14.795Z,0
2017-12-23T01:23:15.027Z,0
2017-12-23T01:24:14.780Z,0
2017-12-23T01:25:16.176Z,0
2017-12-23T01:26:14.808Z,0
2017-12-23T01:27:15.020Z,0
2017-12-23T01:28:14.750Z,0
2017-12-23T01:29:15.017Z,0
2017-12-23T01:30:16.055Z,0
2017-12-23T01:31:14.746Z,0
2017-12-23T01:32:15.000Z,0
2017-12-23T01:33:14.991Z,0
2017-12-23T01:34:14.984Z,0
2017-12-23T01:35:15.386Z,0
2017-12-23T01:36:18.983Z,0
2017-12-23T01:37:14.746Z,0
2017-12-23T01:38:14.726Z,0
2017-12-23T01:39:14.967Z,0
2017-12-23T01:40:16.379Z,0
2017-12-23T01:41:14.963Z,0
2017-12-23T01:42:14.738Z,0
2017-12-23T01:43:14.722Z,0
2017-12-23T01:44:14.951Z,0
2017-12-23T01:45:15.865Z,0
2017-12-23T01:46:14.943Z,0
2017-12-23T01:47:14.692Z,0
2017-12-23T01:48:14.443Z,0
2017-12-23T01:49:14.945Z,0
2017-12-23T01:50:16.264Z,0
2017-12-23T01:51:14.932Z,0
2017-12-23T01:52:15.173Z,0
2017-12-23T01:53:14.927Z,0
2017-12-23T01:54:14.661Z,0
2017-12-23T01:55:16.677Z,0
2017-12-23T01:56:14.666Z,0
2017-12-23T01:57:14.918Z,0
2017-12-23T01:58:14.911Z,0
2017-12-23T01:59:14.652Z,0
2017-12-23T02:00:15.762Z,0
2017-12-23T02:01:14.640Z,0
2017-12-23T02:02:14.639Z,0
2017-12-23T02:03:14.637Z,0
2017-12-23T02:04:14.888Z,0
2017-12-23T02:05:16.786Z,0
2017-12-23T02:06:14.623Z,0
2017-12-23T02:07:15.185Z,0
2017-12-23T02:08:14.610Z,0
2017-12-23T02:09:14.868Z,0
2017-12-23T02:10:15.934Z,0
2017-12-23T02:11:14.854Z,0
2017-12-23T02:12:14.856Z,0
2017-12-23T02:13:14.593Z,0
2017-12-23T02:14:14.853Z,0
2017-12-23T02:15:15.306Z,0
2017-12-23T02:16:14.333Z,0
2017-12-23T02:17:14.846Z,0
2017-12-23T02:18:14.588Z,0
2017-12-23T02:19:14.839Z,0
2017-12-23T02:20:16.314Z,0
2017-12-23T02:21:14.825Z,0
2017-12-23T02:22:14.839Z,0
2017-12-23T02:23:14.305Z,0
2017-12-23T02:24:14.059Z,0
2017-12-23T02:25:15.742Z,0
2017-12-23T02:26:14.801Z,0
2017-12-23T02:27:14.855Z,0
2017-12-23T02:28:14.557Z,0
2017-12-23T02:29:14.561Z,0
2017-12-23T02:30:16.236Z,0
2017-12-23T02:31:14.843Z,0
2017-12-23T02:32:14.276Z,0
2017-12-23T02:33:14.786Z,0
2017-12-23T02:34:14.781Z,0
2017-12-23T02:35:15.674Z,0
2017-12-23T02:36:14.770Z,0
2017-12-23T02:37:15.810Z,0
2017-12-23T02:38:14.758Z,0
2017-12-23T02:39:14.756Z,0
2017-12-23T02:40:16.381Z,0
2017-12-23T02:41:14.510Z,0
2017-12-23T02:42:14.518Z,0
2017-12-23T02:43:14.759Z,0
2017-12-23T02:44:14.745Z,0
2017-12-23T02:45:15.997Z,0
2017-12-23T02:46:14.722Z,0
2017-12-23T02:47:14.728Z,0
2017-12-23T02:48:14.469Z,0
2017-12-23T02:49:14.723Z,0
2017-12-23T02:50:15.342Z,0
2017-12-23T02:51:14.475Z,0
2017-12-23T02:52:15.757Z,0
2017-12-23T02:53:14.710Z,0
2017-12-23T02:54:14.710Z,0
2017-12-23T02:55:15.847Z,0
2017-12-23T02:56:14.448Z,0
2017-12-23T02:57:14.433Z,0
2017-12-23T02:58:14.437Z,0
2017-12-23T02:59:14.423Z,0
2017-12-23T03:00:15.619Z,0
2017-12-23T03:01:14.666Z,0
2017-12-23T03:02:14.408Z,0
2017-12-23T03:03:14.408Z,0
2017-12-23T03:04:14.658Z,0
2017-12-23T03:05:16.235Z,0
2017-12-23T03:06:14.403Z,0
2017-12-23T03:07:14.394Z,0
2017-12-23T03:08:14.404Z,0
2017-12-23T03:09:14.652Z,0
2017-12-23T03:10:14.884Z,0
2017-12-23T03:11:14.378Z,0
2017-12-23T03:12:14.382Z,0
2017-12-23T03:13:14.624Z,0
2017-12-23T03:14:14.115Z,0
2017-12-23T03:15:16.053Z,0
2017-12-23T03:16:14.117Z,0
2017-12-23T03:17:14.108Z,0
2017-12-23T03:18:14.607Z,0
2017-12-23T03:19:14.092Z,0
2017-12-23T03:20:15.646Z,0
2017-12-23T03:21:14.598Z,0
2017-12-23T03:22:14.337Z,0
2017-12-23T03:23:14.619Z,0
2017-12-23T03:24:14.582Z,0
2017-12-23T03:25:15.079Z,0
2017-12-23T03:26:14.324Z,0
2017-12-23T03:27:14.571Z,0
2017-12-23T03:28:14.580Z,0
2017-12-23T03:29:14.305Z,0
2017-12-23T03:30:15.650Z,0
2017-12-23T03:31:14.310Z,0
2017-12-23T03:32:14.301Z,0
2017-12-23T03:33:14.300Z,0
2017-12-23T03:34:14.306Z,0
2017-12-23T03:35:15.650Z,0
2017-12-23T03:36:13.782Z,0
2017-12-23T03:37:14.028Z,0
2017-12-23T03:38:19.336Z,0
2017-12-23T03:39:14.534Z,0
2017-12-23T03:40:15.758Z,0
2017-12-23T03:41:14.515Z,0
2017-12-23T03:42:14.026Z,0
2017-12-23T03:43:14.016Z,0
2017-12-23T03:44:14.010Z,0
2017-12-23T03:45:15.148Z,0
2017-12-23T03:46:14.246Z,0
2017-12-23T03:47:14.244Z,0
2017-12-23T03:48:14.507Z,0
2017-12-23T03:49:14.487Z,0
2017-12-23T03:50:15.312Z,0
2017-12-23T03:51:14.484Z,0
2017-12-23T03:52:14.230Z,0
2017-12-23T03:53:14.226Z,0
2017-12-23T03:54:14.213Z,0
2017-12-23T03:55:15.522Z,0
2017-12-23T03:56:14.458Z,0
2017-12-23T03:57:14.210Z,0
2017-12-23T03:58:14.449Z,0
2017-12-23T03:59:14.443Z,0
2017-12-23T04:00:15.470Z,0
2017-12-23T04:01:14.440Z,0
2017-12-23T04:02:13.932Z,0
2017-12-23T04:03:14.449Z,0
2017-12-23T04:04:14.425Z,0
2017-12-23T04:05:15.411Z,0
2017-12-23T04:06:14.173Z,0
2017-12-23T04:07:13.906Z,0
2017-12-23T04:08:13.905Z,0
2017-12-23T04:09:14.409Z,0
2017-12-23T04:10:15.101Z,0
2017-12-23T04:11:14.393Z,0
2017-12-23T04:12:13.634Z,0
2017-12-23T04:13:13.883Z,0
2017-12-23T04:14:14.136Z,0
2017-12-23T04:15:14.939Z,0
2017-12-23T04:16:14.120Z,0
2017-12-23T04:17:14.384Z,0
2017-12-23T04:18:13.864Z,0
2017-12-23T04:19:13.858Z,0
2017-12-23T04:20:15.718Z,0
2017-12-23T04:21:14.362Z,0
2017-12-23T04:22:13.603Z,0
2017-12-23T04:23:14.345Z,0
2017-12-23T04:24:14.143Z,0
2017-12-23T04:25:15.415Z,0
2017-12-23T04:26:14.082Z,0
2017-12-23T04:27:14.337Z,0
2017-12-23T04:28:14.074Z,0
2017-12-23T04:29:14.069Z,0
2017-12-23T04:30:15.593Z,0
2017-12-23T04:31:14.056Z,0
2017-12-23T04:32:14.061Z,0
2017-12-23T04:33:14.048Z,0
2017-12-23T04:34:13.795Z,0
2017-12-23T04:35:15.305Z,0
2017-12-23T04:36:14.044Z,0
2017-12-23T04:37:14.294Z,0
2017-12-23T04:38:14.043Z,0
2017-12-23T04:39:16.224Z,0
2017-12-23T04:40:15.583Z,0
2017-12-23T04:41:14.266Z,0
2017-12-23T04:42:13.758Z,0
2017-12-23T04:43:14.325Z,0
2017-12-23T04:44:14.261Z,0
2017-12-23T04:45:15.387Z,0
2017-12-23T04:46:14.247Z,0
2017-12-23T04:47:14.254Z,0
2017-12-23T04:48:14.247Z,0
2017-12-23T04:49:13.983Z,0
2017-12-23T04:50:15.623Z,0
2017-12-23T04:51:13.975Z,0
2017-12-23T04:52:13.722Z,0
2017-12-23T04:53:13.962Z,0
2017-12-23T04:54:14.517Z,0
2017-12-23T04:55:15.109Z,0
2017-12-23T04:56:13.699Z,0
2017-12-23T04:57:13.949Z,0
2017-12-23T04:58:14.215Z,0
2017-12-23T04:59:14.201Z,0
2017-12-23T05:00:15.191Z,0
2017-12-23T05:01:13.424Z,0
2017-12-23T05:02:13.965Z,0
2017-12-23T05:03:13.675Z,0
2017-12-23T05:04:14.164Z,0
2017-12-23T05:05:14.907Z,0
2017-12-23T05:06:13.902Z,0
2017-12-23T05:07:13.642Z,0
2017-12-23T05:08:13.896Z,0
2017-12-23T05:09:16.452Z,0
2017-12-23T05:10:15.020Z,0
2017-12-23T05:11:13.635Z,0
2017-12-23T05:12:13.892Z,0
2017-12-23T05:13:14.138Z,0
2017-12-23T05:14:13.817Z,0
2017-12-23T05:15:15.077Z,0
2017-12-23T05:16:13.603Z,0
2017-12-23T05:17:13.853Z,0
2017-12-23T05:18:13.619Z,0
2017-12-23T05:19:14.505Z,0
2017-12-23T05:20:15.866Z,0
2017-12-23T05:21:14.100Z,0
2017-12-23T05:22:14.091Z,0
2017-12-23T05:23:13.598Z,0
2017-12-23T05:24:14.075Z,0
2017-12-23T05:25:15.263Z,0
2017-12-23T05:26:13.815Z,0
2017-12-23T05:27:13.309Z,0
2017-12-23T05:28:13.811Z,0
2017-12-23T05:29:14.069Z,0
2017-12-23T05:30:14.598Z,0
2017-12-23T05:31:14.053Z,0
2017-12-23T05:32:13.545Z,0
2017-12-23T05:33:13.287Z,0
2017-12-23T05:34:13.549Z,0
2017-12-23T05:35:15.538Z,0
2017-12-23T05:36:13.781Z,0
2017-12-23T05:37:13.779Z,0
2017-12-23T05:38:13.524Z,0
2017-12-23T05:39:13.774Z,0
2017-12-23T05:40:16.851Z,0
2017-12-23T05:41:13.754Z,0
2017-12-23T05:42:13.762Z,0
2017-12-23T05:43:13.763Z,0
2017-12-23T05:44:14.008Z,0
2017-12-23T05:45:14.481Z,0
2017-12-23T05:46:13.503Z,0
2017-12-23T05:47:13.757Z,0
2017-12-23T05:48:13.986Z,0
2017-12-23T05:49:13.732Z,0
2017-12-23T05:50:15.926Z,0
2017-12-23T05:51:13.969Z,0
2017-12-23T05:52:13.715Z,0
2017-12-23T05:53:13.993Z,0
2017-12-23T05:54:13.458Z,0
2017-12-23T05:55:16.183Z,0
2017-12-23T05:56:13.947Z,0
2017-12-23T05:57:13.448Z,0
2017-12-23T05:58:13.942Z,0
2017-12-23T05:59:13.706Z,0
2017-12-23T06:00:15.562Z,0
2017-12-23T06:01:13.734Z,0
2017-12-23T06:02:13.678Z,0
2017-12-23T06:03:13.929Z,0
2017-12-23T06:04:13.922Z,0
2017-12-23T06:05:17.709Z,0
2017-12-23T06:06:13.915Z,0
2017-12-23T06:07:13.663Z,0
2017-12-23T06:08:13.419Z,0
2017-12-23T06:09:13.908Z,0
2017-12-23T06:10:15.184Z,0
2017-12-23T06:11:13.644Z,0
2017-12-23T06:12:13.900Z,0
2017-12-23T06:13:13.893Z,0
2017-12-23T06:14:13.654Z,0
2017-12-23T06:15:15.467Z,0
2017-12-23T06:16:13.632Z,0
2017-12-23T06:17:13.882Z,0
2017-12-23T06:18:13.886Z,0
2017-12-23T06:19:13.878Z,0
2017-12-23T06:20:15.710Z,0
2017-12-23T06:21:13.882Z,0
2017-12-23T06:22:13.884Z,0
2017-12-23T06:23:13.845Z,0
2017-12-23T06:24:13.857Z,0
2017-12-23T06:25:14.738Z,0
2017-12-23T06:26:17.092Z,0
2017-12-23T06:27:13.840Z,0
2017-12-23T06:28:13.832Z,0
2017-12-23T06:29:13.584Z,0
2017-12-23T06:30:14.986Z,0
2017-12-23T06:31:13.562Z,0
2017-12-23T06:32:13.557Z,0
2017-12-23T06:33:13.576Z,0
2017-12-23T06:34:13.556Z,0
2017-12-23T06:35:14.978Z,0
2017-12-23T06:36:13.617Z,0
2017-12-23T06:37:13.784Z,0
2017-12-23T06:38:13.548Z,0
2017-12-23T06:39:13.796Z,0
2017-12-23T06:40:14.501Z,0
2017-12-23T06:41:14.587Z,0
2017-12-23T06:42:13.518Z,0
2017-12-23T06:43:13.786Z,0
2017-12-23T06:44:13.533Z,4
2017-12-23T06:45:15.269Z,4
2017-12-23T06:46:13.753Z,4
2017-12-23T06:47:13.513Z,0
2017-12-23T06:48:13.495Z,4
2017-12-23T06:49:13.490Z,4
2017-12-23T06:50:15.129Z,4
2017-12-23T06:51:13.488Z,4
2017-12-23T06:52:13.485Z,4
2017-12-23T06:53:13.741Z,4
2017-12-23T06:54:12.963Z,4
2017-12-23T06:55:14.551Z,8
2017-12-23T06:56:13.273Z,8
2017-12-23T06:57:13.695Z,12
2017-12-23T06:58:13.695Z,8
2017-12-23T06:59:13.703Z,12
2017-12-23T07:00:14.866Z,16
2017-12-23T07:01:13.448Z,16
2017-12-23T07:02:13.694Z,16
2017-12-23T07:03:13.683Z,24
2017-12-23T07:04:13.420Z,28
2017-12-23T07:05:14.842Z,28
2017-12-23T07:06:13.161Z,32
2017-12-23T07:07:13.658Z,36
2017-12-23T07:08:13.661Z,40
2017-12-23T07:09:13.664Z,44
2017-12-23T07:10:14.761Z,52
2017-12-23T07:11:14.643Z,52
2017-12-23T07:12:13.390Z,56
2017-12-23T07:13:13.640Z,64
2017-12-23T07:14:13.645Z,72
2017-12-23T07:15:15.428Z,80
2017-12-23T07:16:13.639Z,84
2017-12-23T07:17:13.632Z,92
2017-12-23T07:18:13.631Z,100
2017-12-23T07:19:13.612Z,112
2017-12-23T07:20:15.322Z,120
2017-12-23T07:21:13.360Z,132
2017-12-23T07:22:13.342Z,140
2017-12-23T07:23:13.595Z,152
2017-12-23T07:24:13.332Z,160
2017-12-23T07:25:15.295Z,172
2017-12-23T07:26:13.335Z,176
2017-12-23T07:27:13.578Z,180
2017-12-23T07:28:13.639Z,184
2017-12-23T07:29:13.331Z,188
2017-12-23T07:30:15.187Z,188
2017-12-23T07:31:13.570Z,192
2017-12-23T07:32:12.807Z,204
2017-12-23T07:33:13.551Z,212
2017-12-23T07:34:13.550Z,228
2017-12-23T07:35:15.117Z,240
2017-12-23T07:36:13.280Z,256
2017-12-23T07:37:13.284Z,268
2017-12-23T07:38:13.302Z,272
2017-12-23T07:39:13.036Z,276
2017-12-23T07:40:14.531Z,280
2017-12-23T07:41:13.591Z,276
2017-12-23T07:42:15.368Z,280
2017-12-23T07:43:13.524Z,288
2017-12-23T07:44:13.521Z,300
2017-12-23T07:45:15.047Z,308
2017-12-23T07:46:13.496Z,304
2017-12-23T07:47:13.497Z,308
2017-12-23T07:48:13.511Z,308
2017-12-23T07:49:13.235Z,316
2017-12-23T07:50:15.112Z,324
2017-12-23T07:51:13.238Z,332
2017-12-23T07:52:13.474Z,340
2017-12-23T07:53:13.475Z,352
2017-12-23T07:54:13.233Z,364
2017-12-23T07:55:15.406Z,384
2017-12-23T07:56:13.209Z,404
2017-12-23T07:57:13.455Z,424
2017-12-23T07:58:13.465Z,448
2017-12-23T07:59:13.456Z,476
2017-12-23T08:00:15.071Z,500
2017-12-23T08:01:13.200Z,516
2017-12-23T08:02:13.216Z,532
2017-12-23T08:03:13.447Z,568
2017-12-23T08:04:13.189Z,600
2017-12-23T08:05:15.140Z,632
2017-12-23T08:06:13.431Z,652
2017-12-23T08:07:13.414Z,676
2017-12-23T08:08:13.412Z,696
2017-12-23T08:09:13.409Z,720
2017-12-23T08:10:14.068Z,736
2017-12-23T08:11:13.400Z,756
2017-12-23T08:12:13.897Z,764
2017-12-23T08:13:13.177Z,768
2017-12-23T08:14:13.142Z,788
2017-12-23T08:15:14.604Z,820
2017-12-23T08:16:13.381Z,860
2017-12-23T08:17:13.143Z,908
2017-12-23T08:18:13.377Z,952
2017-12-23T08:19:13.370Z,980
2017-12-23T08:20:14.563Z,980
2017-12-23T08:21:13.368Z,980
2017-12-23T08:22:13.710Z,984
2017-12-23T08:23:13.356Z,988
2017-12-23T08:24:13.360Z,992
2017-12-23T08:25:14.248Z,1008
2017-12-23T08:26:13.345Z,1024
2017-12-23T08:27:13.092Z,1024
2017-12-23T08:28:13.100Z,1036
2017-12-23T08:29:13.330Z,1080
2017-12-23T08:30:14.566Z,1096
2017-12-23T08:31:13.320Z,1108
2017-12-23T08:32:13.315Z,1096
2017-12-23T08:33:13.335Z,1124
2017-12-23T08:34:13.058Z,1164
2017-12-23T08:35:14.620Z,1188
2017-12-23T08:36:45.171Z,1288
2017-12-23T08:37:13.051Z,1328
2017-12-23T08:38:13.062Z,1416
2017-12-23T08:39:13.298Z,1464
2017-12-23T08:40:15.162Z,1460
2017-12-23T08:41:13.286Z,1472
2017-12-23T08:42:13.104Z,1464
2017-12-23T08:43:13.289Z,1436
2017-12-23T08:44:13.286Z,1404
2017-12-23T08:45:13.495Z,1380
2017-12-23T08:46:13.322Z,1376
2017-12-23T08:47:13.272Z,1384
2017-12-23T08:48:13.014Z,1384
2017-12-23T08:49:13.266Z,1340
2017-12-23T08:50:14.925Z,1272
2017-12-23T08:51:13.003Z,1200
2017-12-23T08:52:12.992Z,1128
2017-12-23T08:53:13.247Z,1060
2017-12-23T08:54:12.742Z,1000
2017-12-23T08:55:14.209Z,948
2017-12-23T08:56:13.230Z,908
2017-12-23T08:57:13.225Z,912
2017-12-23T08:58:13.226Z,964
2017-12-23T08:59:12.969Z,1020
2017-12-23T09:00:15.138Z,1068
2017-12-23T09:01:13.216Z,1088
2017-12-23T09:02:13.216Z,1108
2017-12-23T09:03:12.963Z,1136
2017-12-23T09:04:13.201Z,1160
2017-12-23T09:05:15.371Z,1188
2017-12-23T09:06:12.942Z,1228
2017-12-23T09:07:12.948Z,1308
2017-12-23T09:08:13.192Z,1396
2017-12-23T09:09:13.188Z,1424
2017-12-23T09:10:14.489Z,1460
2017-12-23T09:11:12.923Z,1468
2017-12-23T09:12:12.922Z,1472
2017-12-23T09:13:14.476Z,1504
2017-12-23T09:14:12.975Z,1488
2017-12-23T09:15:14.607Z,1436
2017-12-23T09:16:13.200Z,1428
2017-12-23T09:17:13.271Z,1472
2017-12-23T09:18:13.153Z,1508
2017-12-23T09:19:13.148Z,1568
2017-12-23T09:20:14.543Z,1636
2017-12-23T09:21:12.640Z,1624
2017-12-23T09:22:13.138Z,1620
2017-12-23T09:23:12.641Z,1576
2017-12-23T09:24:12.893Z,1512
2017-12-23T09:25:15.228Z,1456
2017-12-23T09:26:13.131Z,1428
2017-12-23T09:27:13.141Z,1452
2017-12-23T09:28:12.864Z,1504
2017-12-23T09:29:12.865Z,1572
2017-12-23T09:30:14.040Z,1660
2017-12-23T09:31:12.871Z,1696
2017-12-23T09:32:12.599Z,1704
2017-12-23T09:33:13.125Z,1712
2017-12-23T09:34:13.123Z,1740
2017-12-23T09:35:14.508Z,1780
2017-12-23T09:36:12.846Z,1792
2017-12-23T09:37:12.866Z,1764
2017-12-23T09:38:13.099Z,1724
2017-12-23T09:39:12.849Z,1684
2017-12-23T09:40:14.838Z,1664
2017-12-23T09:41:12.823Z,1664
2017-12-23T09:42:13.075Z,1676
2017-12-23T09:43:16.020Z,1700
2017-12-23T09:44:12.821Z,1788
2017-12-23T09:45:14.409Z,1924
2017-12-23T09:46:12.809Z,2036
2017-12-23T09:47:13.070Z,2092
2017-12-23T09:48:13.056Z,2172
2017-12-23T09:49:12.804Z,2280
2017-12-23T09:50:13.780Z,2380
2017-12-23T09:51:13.055Z,2420
2017-12-23T09:52:13.055Z,2416
2017-12-23T09:53:12.799Z,2388
2017-12-23T09:54:12.786Z,2368
2017-12-23T09:55:13.533Z,2344
2017-12-23T09:56:13.036Z,2356
2017-12-23T09:57:12.779Z,2380
2017-12-23T09:58:13.570Z,2404
2017-12-23T09:59:12.768Z,2412
2017-12-23T10:00:14.518Z,2392
2017-12-23T10:01:13.022Z,2408
2017-12-23T10:02:12.517Z,2472
2017-12-23T10:03:13.013Z,2572
2017-12-23T10:04:12.767Z,2676
2017-12-23T10:05:13.763Z,2692
2017-12-23T10:06:12.766Z,2700
2017-12-23T10:07:13.018Z,2676
2017-12-23T10:08:12.998Z,2676
2017-12-23T10:09:13.020Z,2744
2017-12-23T10:10:13.654Z,2828
2017-12-23T10:11:12.990Z,2884
2017-12-23T10:12:12.737Z,2888
2017-12-23T10:13:12.993Z,2892
2017-12-23T10:14:12.986Z,2980
2017-12-23T10:15:13.796Z,3108
2017-12-23T10:16:12.988Z,3224
2017-12-23T10:17:12.987Z,3288
2017-12-23T10:18:12.975Z,3336
2017-12-23T10:19:12.532Z,3348
2017-12-23T10:20:14.194Z,3368
2017-12-23T10:21:12.726Z,3416
2017-12-23T10:52:37.361Z,2108
2017-12-23T10:53:36.581Z,2008
2017-12-23T10:54:36.558Z,1884
2017-12-23T10:55:36.302Z,1820
2017-12-23T10:56:36.540Z,1864
2017-12-23T10:57:36.602Z,1840
2017-12-23T10:58:36.548Z,1712
2017-12-23T10:59:36.266Z,1616
2017-12-23T11:00:36.263Z,1560
2017-12-23T11:01:36.529Z,1536
2017-12-23T11:02:36.516Z,1540
2017-12-23T11:03:36.238Z,1548
2017-12-23T11:04:36.246Z,1656
2017-12-23T11:05:36.552Z,1816
2017-12-23T11:06:35.966Z,1716
2017-12-23T11:07:35.712Z,1636
2017-12-23T11:08:35.963Z,1560
2017-12-23T11:09:36.219Z,1528
2017-12-23T11:10:36.234Z,1520
2017-12-23T11:11:36.474Z,1556
2017-12-23T11:12:36.471Z,1668
2017-12-23T11:13:36.453Z,1636
2017-12-23T11:14:35.944Z,1748
2017-12-23T11:15:36.505Z,2084
2017-12-23T11:16:36.189Z,2368
2017-12-23T11:17:36.206Z,2540
2017-12-23T11:18:36.187Z,2584
2017-12-23T11:19:36.434Z,2368
2017-12-23T11:20:36.175Z,2164
2017-12-23T11:21:36.188Z,2052
2017-12-23T11:22:36.572Z,2136
2017-12-23T11:23:36.406Z,2188
2017-12-23T11:24:36.424Z,2108
2017-12-23T11:25:36.403Z,2028
2017-12-23T11:26:36.399Z,1948
2017-12-23T11:27:36.153Z,1864
2017-12-23T11:28:36.146Z,1812
2017-12-23T11:29:35.636Z,1852
2017-12-23T11:30:36.186Z,1984
2017-12-23T11:31:36.156Z,2176
2017-12-23T11:32:36.394Z,2132
2017-12-23T11:33:36.124Z,1936
2017-12-23T11:34:35.874Z,1764
2017-12-23T11:35:36.384Z,1712
2017-12-23T11:36:36.119Z,1688
2017-12-23T11:37:36.116Z,1580
2017-12-23T11:38:36.124Z,1568
2017-12-23T11:39:36.127Z,1584
2017-12-23T11:40:36.355Z,1664
2017-12-23T11:41:36.104Z,1520
2017-12-23T11:42:36.098Z,1392
2017-12-23T11:43:36.346Z,1340
2017-12-23T11:44:35.842Z,1316
2017-12-23T11:45:36.090Z,1308
2017-12-23T11:46:36.349Z,1384
2017-12-23T11:47:36.096Z,1464
2017-12-23T11:48:36.342Z,1596
2017-12-23T11:49:36.339Z,1684
2017-12-23T11:50:35.574Z,1648
2017-12-23T11:51:36.334Z,1580
2017-12-23T11:52:36.319Z,1596
2017-12-23T11:53:36.312Z,1736
2017-12-23T11:54:36.076Z,2072
2017-12-23T11:55:36.722Z,2148
2017-12-23T11:56:36.073Z,2064
2017-12-23T11:57:36.060Z,1992
2017-12-23T11:58:36.072Z,2072
2017-12-23T11:59:36.381Z,2104
2017-12-23T12:00:36.302Z,1876
2017-12-23T12:01:36.044Z,1816
2017-12-23T12:02:36.056Z,2068
2017-12-23T12:03:36.294Z,2368
2017-12-23T12:04:36.439Z,2496
2017-12-23T12:05:36.292Z,2548
2017-12-23T12:06:36.031Z,2556
2017-12-23T12:07:36.028Z,2580
2017-12-23T12:08:36.323Z,2744
2017-12-23T12:09:36.296Z,2756
2017-12-23T12:10:36.269Z,2752
2017-12-23T12:11:36.038Z,2744
2017-12-23T12:12:36.037Z,2676
2017-12-23T12:13:35.751Z,2652
2017-12-23T12:14:36.254Z,2620
2017-12-23T12:15:36.261Z,2620
2017-12-23T12:16:36.005Z,2772
2017-12-23T12:17:36.237Z,2872
2017-12-23T12:18:35.992Z,2892
2017-12-23T12:19:35.481Z,2904
2017-12-23T12:20:35.988Z,2912
2017-12-23T12:21:36.229Z,2884
2017-12-23T12:22:37.028Z,2828
2017-12-23T12:23:35.724Z,2728
2017-12-23T12:24:36.226Z,2616
2017-12-23T12:25:36.221Z,2636
2017-12-23T12:26:36.240Z,2624
2017-12-23T12:27:36.237Z,2608
2017-12-23T12:28:36.216Z,2624
2017-12-23T12:29:35.962Z,2752
2017-12-23T12:30:36.209Z,2824
2017-12-23T12:31:35.948Z,2804
2017-12-23T12:32:36.199Z,2800
2017-12-23T12:33:36.205Z,2788
2017-12-23T12:34:36.192Z,2736
2017-12-23T12:35:36.225Z,2592
2017-12-23T12:36:36.239Z,2428
2017-12-23T12:37:37.791Z,2264
2017-12-23T12:38:36.182Z,2196
2017-12-23T12:39:35.676Z,2144
2017-12-23T12:40:35.922Z,2104
2017-12-23T12:41:35.669Z,2056
2017-12-23T12:42:36.188Z,1996
2017-12-23T12:43:35.918Z,1904
2017-12-23T12:44:35.917Z,1768
2017-12-23T12:45:36.175Z,1692
2017-12-23T12:46:36.157Z,1544
2017-12-23T12:47:36.170Z,1404
2017-12-23T12:48:36.165Z,1348
2017-12-23T12:49:35.907Z,1356
2017-12-23T12:50:36.246Z,1448
2017-12-23T12:51:35.915Z,1556
2017-12-23T12:52:35.899Z,1816
2017-12-23T12:53:35.892Z,1948
2017-12-23T12:54:35.893Z,1828
2017-12-23T12:55:36.142Z,1624
2017-12-23T12:56:36.173Z,1440
2017-12-23T12:57:35.885Z,1324
2017-12-23T12:58:35.890Z,1304
2017-12-23T12:59:35.636Z,1252
2017-12-23T13:00:36.143Z,1216
2017-12-23T13:01:35.880Z,1208
2017-12-23T13:02:36.137Z,1176
2017-12-23T13:03:35.869Z,1148
2017-12-23T13:04:36.120Z,1096
2017-12-23T13:05:36.120Z,1052
2017-12-23T13:06:36.115Z,1016
2017-12-23T13:07:35.908Z,1096
2017-12-23T13:08:35.969Z,1268
2017-12-23T13:09:36.102Z,1380
2017-12-23T13:10:35.855Z,1452
2017-12-23T13:11:35.595Z,1560
2017-12-23T13:12:36.100Z,1804
2017-12-23T13:13:36.092Z,2008
2017-12-23T13:14:35.586Z,2036
2017-12-23T13:15:35.841Z,1976
2017-12-23T13:16:35.846Z,1824
2017-12-23T13:17:35.587Z,1740
2017-12-23T13:18:36.081Z,1728
2017-12-23T13:19:36.074Z,1788
2017-12-23T13:20:35.814Z,1920
2017-12-23T13:21:36.088Z,1928
2017-12-23T13:22:35.827Z,1868
2017-12-23T13:23:36.079Z,1908
2017-12-23T13:24:35.812Z,1948
2017-12-23T13:25:36.065Z,1940
2017-12-23T13:26:36.066Z,1936
2017-12-23T13:27:36.070Z,1960
2017-12-23T13:28:35.801Z,1856
2017-12-23T13:29:35.792Z,1804
2017-12-23T13:30:36.075Z,1744
2017-12-23T13:31:36.048Z,1664
2017-12-23T13:32:35.787Z,1636
2017-12-23T13:33:35.586Z,1540
2017-12-23T13:34:35.779Z,1432
2017-12-23T13:35:36.550Z,1384
2017-12-23T13:36:35.674Z,1344
2017-12-23T13:37:36.160Z,1296
2017-12-23T13:38:35.886Z,1244
2017-12-23T13:39:35.887Z,1172
2017-12-23T13:40:36.248Z,1152
2017-12-23T13:41:36.089Z,1200
2017-12-23T13:42:36.028Z,1220
2017-12-23T13:43:36.343Z,1116
2017-12-23T13:44:36.021Z,1052
2017-12-23T13:45:35.748Z,1032
2017-12-23T13:46:35.796Z,1016
2017-12-23T13:47:36.023Z,960
2017-12-23T13:48:36.029Z,904
2017-12-23T13:49:35.752Z,856
2017-12-23T13:50:35.738Z,828
2017-12-23T13:51:35.733Z,812
2017-12-23T13:52:35.737Z,772
2017-12-23T13:53:36.422Z,716
2017-12-23T13:54:35.732Z,680
2017-12-23T13:55:35.461Z,672
2017-12-23T13:56:35.731Z,660
2017-12-23T13:57:35.955Z,628
2017-12-23T13:58:35.973Z,592
2017-12-23T13:59:35.960Z,604
2017-12-23T14:00:35.733Z,588
2017-12-23T14:01:35.704Z,568
2017-12-23T14:02:35.717Z,520
2017-12-23T14:03:35.690Z,488
2017-12-23T14:04:35.949Z,480
2017-12-23T14:05:36.013Z,488
2017-12-23T14:06:35.951Z,492
2017-12-23T14:07:35.701Z,484
2017-12-23T14:08:35.677Z,476
2017-12-23T14:09:35.925Z,476
2017-12-23T14:10:35.450Z,476
2017-12-23T14:11:35.944Z,484
2017-12-23T14:12:35.921Z,508
2017-12-23T14:13:35.945Z,528
2017-12-23T14:14:35.931Z,532
2017-12-23T14:15:35.968Z,600
2017-12-23T14:16:35.986Z,728
2017-12-23T14:17:35.934Z,792
2017-12-23T14:18:35.914Z,744
2017-12-23T14:19:35.642Z,680
2017-12-23T14:20:35.643Z,632
2017-12-23T14:21:35.657Z,612
2017-12-23T14:22:35.924Z,568
2017-12-23T14:23:36.142Z,536
2017-12-23T14:24:35.642Z,572
2017-12-23T14:25:35.677Z,564
2017-12-23T14:26:35.392Z,540
2017-12-23T14:27:35.895Z,540
2017-12-23T14:28:35.608Z,536
2017-12-23T14:29:35.878Z,584
2017-12-23T14:30:35.874Z,660
2017-12-23T14:31:35.356Z,684
2017-12-23T14:32:35.621Z,668
2017-12-23T14:33:35.608Z,680
2017-12-23T14:34:35.585Z,660
2017-12-23T14:35:35.851Z,600